KDGW/DGW METAR and TAF weather

Enter ICAO airport designator
Station Type Date Time Source
KDGW METAR 2021/09/24 03:53 UTC NOAA

KDGW 240353Z AUTO 30003KT 10SM CLR 10/03 A3016 RMK AO2 SLP177 T01000028


Station Type Date Time Source
KDGW Decoded METAR 2021/09/24 03:53 UTC NOAA

DOUGLAS CONVERSE COUNTY, WY, United States (KDGW) 42-48N 105-23W 1499M
Sep 23, 2021 - 11:53 PM EDT / 2021.09.24 0353 UTC
Wind: from the WNW (300 degrees) at 3 MPH (3 KT):0
Visibility: 10 mile(s):0
Sky conditions: clear
Temperature: 50.0 F (10.0 C)
Dew Point: 37.0 F (2.8 C)
Relative Humidity: 60%
Pressure (altimeter): 30.16 in. Hg (1021 hPa)
ob: KDGW 240353Z AUTO 30003KT 10SM CLR 10/03 A3016 RMK AO2 SLP177 T01000028
cycle: 4

Station Type Date Time Source
KDGW TAF UTC NOAA

Error!

Example: see airport list